sensor_id;sensor_type;location;lat;lon;timestamp;P1;durP1;ratioP1;P2;durP2;ratioP2
18879;SDS011;9572;52.378;13.404;2023-05-10T00:01:30;6.77;;;4.53;;
18879;SDS011;9572;52.378;13.404;2023-05-10T00:03:57;6.30;;;4.30;;
18879;SDS011;9572;52.378;13.404;2023-05-10T00:06:25;5.70;;;4.80;;
18879;SDS011;9572;52.378;13.404;2023-05-10T00:08:52;9.20;;;4.97;;
18879;SDS011;9572;52.378;13.404;2023-05-10T00:11:19;7.73;;;4.90;;
18879;SDS011;9572;52.378;13.404;2023-05-10T00:13:46;9.47;;;4.67;;
18879;SDS011;9572;52.378;13.404;2023-05-10T00:16:13;6.17;;;4.27;;
18879;SDS011;9572;52.378;13.404;2023-05-10T00:18:40;6.67;;;4.30;;
18879;SDS011;9572;52.378;13.404;2023-05-10T00:21:07;8.53;;;4.93;;
18879;SDS011;9572;52.378;13.404;2023-05-10T00:23:35;10.60;;;4.93;;
18879;SDS011;9572;52.378;13.404;2023-05-10T00:26:02;9.80;;;4.97;;
18879;SDS011;9572;52.378;13.404;2023-05-10T00:28:29;6.67;;;5.00;;
18879;SDS011;9572;52.378;13.404;2023-05-10T00:30:56;6.50;;;4.80;;
18879;SDS011;9572;52.378;13.404;2023-05-10T00:33:23;7.53;;;5.53;;
18879;SDS011;9572;52.378;13.404;2023-05-10T00:35:50;6.87;;;4.83;;
18879;SDS011;9572;52.378;13.404;2023-05-10T00:38:17;7.47;;;4.63;;
18879;SDS011;9572;52.378;13.404;2023-05-10T00:40:45;11.50;;;5.80;;
18879;SDS011;9572;52.378;13.404;2023-05-10T00:43:12;5.73;;;4.70;;
18879;SDS011;9572;52.378;13.404;2023-05-10T00:45:39;5.90;;;4.67;;
18879;SDS011;9572;52.378;13.404;2023-05-10T00:48:07;8.90;;;5.10;;
18879;SDS011;9572;52.378;13.404;2023-05-10T00:50:34;6.27;;;4.77;;
18879;SDS011;9572;52.378;13.404;2023-05-10T00:53:01;6.77;;;5.07;;
18879;SDS011;9572;52.378;13.404;2023-05-10T00:55:28;6.37;;;5.00;;
18879;SDS011;9572;52.378;13.404;2023-05-10T00:57:57;8.60;;;5.10;;
18879;SDS011;9572;52.378;13.404;2023-05-10T01:00:25;9.40;;;5.10;;
18879;SDS011;9572;52.378;13.404;2023-05-10T01:02:52;9.03;;;4.93;;
18879;SDS011;9572;52.378;13.404;2023-05-10T01:05:20;8.93;;;5.43;;
18879;SDS011;9572;52.378;13.404;2023-05-10T01:07:47;6.87;;;5.10;;
18879;SDS011;9572;52.378;13.404;2023-05-10T01:10:14;7.13;;;5.13;;
18879;SDS011;9572;52.378;13.404;2023-05-10T01:12:43;9.67;;;5.57;;
18879;SDS011;9572;52.378;13.404;2023-05-10T01:15:13;8.30;;;5.30;;
18879;SDS011;9572;52.378;13.404;2023-05-10T01:17:42;11.77;;;5.90;;
18879;SDS011;9572;52.378;13.404;2023-05-10T01:20:11;9.40;;;5.63;;
18879;SDS011;9572;52.378;13.404;2023-05-10T01:22:44;12.37;;;5.43;;
18879;SDS011;9572;52.378;13.404;2023-05-10T01:25:57;10.27;;;4.90;;
18879;SDS011;9572;52.378;13.404;2023-05-10T01:34:42;7.00;;;5.33;;
18879;SDS011;9572;52.378;13.404;2023-05-10T01:37:20;8.33;;;5.13;;
18879;SDS011;9572;52.378;13.404;2023-05-10T01:39:50;10.60;;;5.77;;
18879;SDS011;9572;52.378;13.404;2023-05-10T01:42:23;8.80;;;5.70;;
18879;SDS011;9572;52.378;13.404;2023-05-10T01:44:54;7.87;;;5.47;;
18879;SDS011;9572;52.378;13.404;2023-05-10T01:47:27;9.20;;;5.33;;
18879;SDS011;9572;52.378;13.404;2023-05-10T01:50:01;8.47;;;5.43;;
18879;SDS011;9572;52.378;13.404;2023-05-10T01:52:32;8.03;;;4.93;;
18879;SDS011;9572;52.378;13.404;2023-05-10T01:55:04;8.63;;;5.73;;
18879;SDS011;9572;52.378;13.404;2023-05-10T01:57:34;7.37;;;5.70;;
18879;SDS011;9572;52.378;13.404;2023-05-10T02:00:05;7.97;;;5.27;;
18879;SDS011;9572;52.378;13.404;2023-05-10T02:02:37;7.70;;;6.10;;
18879;SDS011;9572;52.378;13.404;2023-05-10T02:05:07;7.50;;;5.10;;
18879;SDS011;9572;52.378;13.404;2023-05-10T02:07:35;7.83;;;5.50;;
18879;SDS011;9572;52.378;13.404;2023-05-10T02:10:04;11.60;;;5.30;;
18879;SDS011;9572;52.378;13.404;2023-05-10T02:12:33;10.43;;;5.57;;
18879;SDS011;9572;52.378;13.404;2023-05-10T02:15:02;9.00;;;5.43;;
18879;SDS011;9572;52.378;13.404;2023-05-10T02:17:31;6.67;;;5.10;;
18879;SDS011;9572;52.378;13.404;2023-05-10T02:20:01;8.90;;;5.43;;
18879;SDS011;9572;52.378;13.404;2023-05-10T02:22:29;11.63;;;5.67;;
18879;SDS011;9572;52.378;13.404;2023-05-10T02:24:58;9.17;;;5.70;;
18879;SDS011;9572;52.378;13.404;2023-05-10T02:27:27;10.47;;;5.33;;
18879;SDS011;9572;52.378;13.404;2023-05-10T02:29:55;9.43;;;5.53;;
18879;SDS011;9572;52.378;13.404;2023-05-10T02:32:24;6.83;;;5.60;;
18879;SDS011;9572;52.378;13.404;2023-05-10T02:34:52;9.27;;;5.57;;
18879;SDS011;9572;52.378;13.404;2023-05-10T02:37:22;8.27;;;5.77;;
18879;SDS011;9572;52.378;13.404;2023-05-10T02:39:50;10.23;;;5.50;;
18879;SDS011;9572;52.378;13.404;2023-05-10T02:42:21;7.70;;;5.50;;
18879;SDS011;9572;52.378;13.404;2023-05-10T02:44:50;6.80;;;5.20;;
18879;SDS011;9572;52.378;13.404;2023-05-10T02:47:19;11.43;;;5.67;;
18879;SDS011;9572;52.378;13.404;2023-05-10T02:49:46;9.57;;;5.70;;
18879;SDS011;9572;52.378;13.404;2023-05-10T02:52:14;10.00;;;6.37;;
18879;SDS011;9572;52.378;13.404;2023-05-10T02:54:45;8.80;;;5.73;;
18879;SDS011;9572;52.378;13.404;2023-05-10T02:57:15;9.43;;;5.57;;
18879;SDS011;9572;52.378;13.404;2023-05-10T02:59:44;9.10;;;5.80;;
18879;SDS011;9572;52.378;13.404;2023-05-10T03:02:11;10.60;;;5.73;;
18879;SDS011;9572;52.378;13.404;2023-05-10T03:04:39;8.73;;;6.20;;
18879;SDS011;9572;52.378;13.404;2023-05-10T03:07:05;7.73;;;5.67;;
18879;SDS011;9572;52.378;13.404;2023-05-10T03:09:33;8.03;;;5.70;;
18879;SDS011;9572;52.378;13.404;2023-05-10T03:12:02;8.67;;;5.53;;
18879;SDS011;9572;52.378;13.404;2023-05-10T03:14:41;6.57;;;5.60;;
18879;SDS011;9572;52.378;13.404;2023-05-10T03:17:15;7.80;;;6.07;;
18879;SDS011;9572;52.378;13.404;2023-05-10T03:19:51;6.13;;;5.27;;
18879;SDS011;9572;52.378;13.404;2023-05-10T03:22:21;11.80;;;5.60;;
18879;SDS011;9572;52.378;13.404;2023-05-10T03:24:53;8.57;;;6.03;;
18879;SDS011;9572;52.378;13.404;2023-05-10T03:27:24;11.47;;;6.20;;
18879;SDS011;9572;52.378;13.404;2023-05-10T03:29:53;7.47;;;5.73;;
18879;SDS011;9572;52.378;13.404;2023-05-10T03:32:21;13.97;;;6.00;;
18879;SDS011;9572;52.378;13.404;2023-05-10T03:34:49;7.17;;;5.40;;
18879;SDS011;9572;52.378;13.404;2023-05-10T03:37:16;6.57;;;5.10;;
18879;SDS011;9572;52.378;13.404;2023-05-10T03:39:42;7.03;;;5.63;;
18879;SDS011;9572;52.378;13.404;2023-05-10T03:42:09;7.07;;;5.47;;
18879;SDS011;9572;52.378;13.404;2023-05-10T03:44:38;9.53;;;5.20;;
18879;SDS011;9572;52.378;13.404;2023-05-10T03:47:05;12.10;;;5.97;;
18879;SDS011;9572;52.378;13.404;2023-05-10T03:49:32;6.23;;;5.03;;
18879;SDS011;9572;52.378;13.404;2023-05-10T03:51:59;8.37;;;5.60;;
18879;SDS011;9572;52.378;13.404;2023-05-10T03:54:26;8.53;;;5.47;;
18879;SDS011;9572;52.378;13.404;2023-05-10T03:56:52;10.93;;;5.90;;
18879;SDS011;9572;52.378;13.404;2023-05-10T03:59:19;7.23;;;5.03;;
18879;SDS011;9572;52.378;13.404;2023-05-10T04:01:48;7.67;;;5.47;;
18879;SDS011;9572;52.378;13.404;2023-05-10T04:04:15;8.20;;;5.00;;
18879;SDS011;9572;52.378;13.404;2023-05-10T04:06:43;14.37;;;5.60;;
18879;SDS011;9572;52.378;13.404;2023-05-10T04:09:10;7.57;;;5.33;;
18879;SDS011;9572;52.378;13.404;2023-05-10T04:11:37;8.90;;;5.77;;
18879;SDS011;9572;52.378;13.404;2023-05-10T04:14:04;8.13;;;5.70;;
18879;SDS011;9572;52.378;13.404;2023-05-10T04:16:30;11.13;;;5.60;;
18879;SDS011;9572;52.378;13.404;2023-05-10T04:18:59;6.73;;;5.37;;
18879;SDS011;9572;52.378;13.404;2023-05-10T04:21:26;7.13;;;4.97;;
18879;SDS011;9572;52.378;13.404;2023-05-10T04:23:52;7.03;;;5.03;;
18879;SDS011;9572;52.378;13.404;2023-05-10T04:26:19;8.10;;;5.17;;
18879;SDS011;9572;52.378;13.404;2023-05-10T04:28:47;9.73;;;4.97;;
18879;SDS011;9572;52.378;13.404;2023-05-10T04:31:13;8.10;;;4.90;;
18879;SDS011;9572;52.378;13.404;2023-05-10T04:33:40;9.73;;;5.13;;
18879;SDS011;9572;52.378;13.404;2023-05-10T04:36:09;8.40;;;4.90;;
18879;SDS011;9572;52.378;13.404;2023-05-10T04:38:35;6.47;;;5.00;;
18879;SDS011;9572;52.378;13.404;2023-05-10T04:41:05;7.10;;;4.80;;
18879;SDS011;9572;52.378;13.404;2023-05-10T04:43:33;10.03;;;5.23;;
18879;SDS011;9572;52.378;13.404;2023-05-10T04:46:01;6.53;;;4.57;;
18879;SDS011;9572;52.378;13.404;2023-05-10T04:48:28;7.30;;;4.60;;
18879;SDS011;9572;52.378;13.404;2023-05-10T04:50:55;8.83;;;4.63;;
18879;SDS011;9572;52.378;13.404;2023-05-10T04:53:23;6.73;;;4.60;;
18879;SDS011;9572;52.378;13.404;2023-05-10T04:55:50;7.60;;;4.60;;
18879;SDS011;9572;52.378;13.404;2023-05-10T04:58:17;8.60;;;4.50;;
18879;SDS011;9572;52.378;13.404;2023-05-10T05:00:44;6.83;;;4.27;;
18879;SDS011;9572;52.378;13.404;2023-05-10T05:03:10;6.00;;;4.40;;
18879;SDS011;9572;52.378;13.404;2023-05-10T05:05:37;4.93;;;3.97;;
18879;SDS011;9572;52.378;13.404;2023-05-10T05:08:04;8.60;;;4.40;;
18879;SDS011;9572;52.378;13.404;2023-05-10T05:10:32;6.43;;;4.20;;
18879;SDS011;9572;52.378;13.404;2023-05-10T05:12:59;6.57;;;3.90;;
18879;SDS011;9572;52.378;13.404;2023-05-10T05:15:26;7.20;;;4.40;;
18879;SDS011;9572;52.378;13.404;2023-05-10T05:17:53;5.87;;;4.10;;
18879;SDS011;9572;52.378;13.404;2023-05-10T05:20:20;5.10;;;3.90;;
18879;SDS011;9572;52.378;13.404;2023-05-10T05:22:47;7.80;;;3.90;;
18879;SDS011;9572;52.378;13.404;2023-05-10T05:25:14;4.80;;;3.27;;
18879;SDS011;9572;52.378;13.404;2023-05-10T05:27:43;6.40;;;3.60;;
18879;SDS011;9572;52.378;13.404;2023-05-10T05:30:10;5.20;;;3.33;;
18879;SDS011;9572;52.378;13.404;2023-05-10T05:32:37;11.03;;;3.53;;
18879;SDS011;9572;52.378;13.404;2023-05-10T05:35:04;7.00;;;3.53;;
18879;SDS011;9572;52.378;13.404;2023-05-10T05:37:32;6.23;;;3.40;;
18879;SDS011;9572;52.378;13.404;2023-05-10T05:40:00;5.10;;;3.73;;
18879;SDS011;9572;52.378;13.404;2023-05-10T05:42:29;5.73;;;3.57;;
18879;SDS011;9572;52.378;13.404;2023-05-10T05:44:59;5.30;;;3.53;;
18879;SDS011;9572;52.378;13.404;2023-05-10T05:47:26;7.40;;;3.63;;
18879;SDS011;9572;52.378;13.404;2023-05-10T05:49:53;3.90;;;3.20;;
18879;SDS011;9572;52.378;13.404;2023-05-10T05:52:20;3.40;;;3.10;;
18879;SDS011;9572;52.378;13.404;2023-05-10T05:54:47;8.03;;;3.00;;
18879;SDS011;9572;52.378;13.404;2023-05-10T05:57:14;6.17;;;3.20;;
18879;SDS011;9572;52.378;13.404;2023-05-10T05:59:41;3.70;;;2.97;;
18879;SDS011;9572;52.378;13.404;2023-05-10T06:02:12;6.05;;;2.92;;
18879;SDS011;9572;52.378;13.404;2023-05-10T06:04:39;4.03;;;2.75;;
18879;SDS011;9572;52.378;13.404;2023-05-10T06:07:06;3.92;;;2.95;;
18879;SDS011;9572;52.378;13.404;2023-05-10T06:09:33;4.03;;;2.78;;
18879;SDS011;9572;52.378;13.404;2023-05-10T06:12:00;6.70;;;2.70;;
18879;SDS011;9572;52.378;13.404;2023-05-10T06:14:27;3.80;;;3.03;;
18879;SDS011;9572;52.378;13.404;2023-05-10T06:16:54;3.75;;;2.88;;
18879;SDS011;9572;52.378;13.404;2023-05-10T06:19:22;4.63;;;2.60;;
18879;SDS011;9572;52.378;13.404;2023-05-10T06:21:50;3.65;;;2.40;;
18879;SDS011;9572;52.378;13.404;2023-05-10T06:24:17;3.78;;;2.50;;
18879;SDS011;9572;52.378;13.404;2023-05-10T06:26:44;3.38;;;2.58;;
18879;SDS011;9572;52.378;13.404;2023-05-10T06:29:11;4.97;;;2.80;;
18879;SDS011;9572;52.378;13.404;2023-05-10T06:31:38;4.15;;;2.50;;
18879;SDS011;9572;52.378;13.404;2023-05-10T06:34:05;6.35;;;3.10;;
18879;SDS011;9572;52.378;13.404;2023-05-10T06:36:34;4.00;;;2.50;;
18879;SDS011;9572;52.378;13.404;2023-05-10T06:39:01;5.88;;;2.90;;
18879;SDS011;9572;52.378;13.404;2023-05-10T06:41:29;10.68;;;2.67;;
18879;SDS011;9572;52.378;13.404;2023-05-10T06:43:56;6.30;;;2.72;;
18879;SDS011;9572;52.378;13.404;2023-05-10T06:46:23;3.05;;;2.13;;
18879;SDS011;9572;52.378;13.404;2023-05-10T06:48:50;8.02;;;2.20;;
18879;SDS011;9572;52.378;13.404;2023-05-10T06:51:17;4.95;;;2.45;;
18879;SDS011;9572;52.378;13.404;2023-05-10T06:53:47;7.07;;;2.75;;
18879;SDS011;9572;52.378;13.404;2023-05-10T06:56:23;3.63;;;2.50;;
18879;SDS011;9572;52.378;13.404;2023-05-10T06:58:51;3.15;;;2.38;;
18879;SDS011;9572;52.378;13.404;2023-05-10T07:01:17;3.42;;;2.17;;
18879;SDS011;9572;52.378;13.404;2023-05-10T07:03:44;3.88;;;2.17;;
18879;SDS011;9572;52.378;13.404;2023-05-10T07:06:11;2.88;;;2.28;;
18879;SDS011;9572;52.378;13.404;2023-05-10T07:08:38;4.45;;;2.30;;
18879;SDS011;9572;52.378;13.404;2023-05-10T07:11:07;3.50;;;2.30;;
18879;SDS011;9572;52.378;13.404;2023-05-10T07:13:35;4.65;;;2.60;;
18879;SDS011;9572;52.378;13.404;2023-05-10T07:16:04;4.88;;;2.25;;
18879;SDS011;9572;52.378;13.404;2023-05-10T07:18:31;3.83;;;2.40;;
18879;SDS011;9572;52.378;13.404;2023-05-10T07:20:58;4.72;;;2.05;;
18879;SDS011;9572;52.378;13.404;2023-05-10T07:23:25;5.20;;;2.25;;
18879;SDS011;9572;52.378;13.404;2023-05-10T07:25:52;6.63;;;2.00;;
18879;SDS011;9572;52.378;13.404;2023-05-10T07:28:21;6.88;;;2.20;;
18879;SDS011;9572;52.378;13.404;2023-05-10T07:30:49;4.65;;;2.00;;
18879;SDS011;9572;52.378;13.404;2023-05-10T07:33:16;9.90;;;2.00;;
18879;SDS011;9572;52.378;13.404;2023-05-10T07:35:43;2.47;;;2.05;;
18879;SDS011;9572;52.378;13.404;2023-05-10T07:38:10;5.38;;;1.95;;
18879;SDS011;9572;52.378;13.404;2023-05-10T07:40:37;6.68;;;2.20;;
18879;SDS011;9572;52.378;13.404;2023-05-10T07:43:05;3.40;;;2.30;;
18879;SDS011;9572;52.378;13.404;2023-05-10T07:45:34;2.88;;;2.08;;
18879;SDS011;9572;52.378;13.404;2023-05-10T07:48:01;3.35;;;1.90;;
18879;SDS011;9572;52.378;13.404;2023-05-10T07:50:28;3.72;;;2.50;;
18879;SDS011;9572;52.378;13.404;2023-05-10T07:52:55;6.57;;;2.30;;
18879;SDS011;9572;52.378;13.404;2023-05-10T07:55:22;4.18;;;2.20;;
18879;SDS011;9572;52.378;13.404;2023-05-10T07:57:48;2.78;;;2.17;;
18879;SDS011;9572;52.378;13.404;2023-05-10T08:00:17;4.07;;;2.25;;
18879;SDS011;9572;52.378;13.404;2023-05-10T08:02:46;3.45;;;2.05;;
18879;SDS011;9572;52.378;13.404;2023-05-10T08:05:13;5.32;;;2.33;;
18879;SDS011;9572;52.378;13.404;2023-05-10T08:07:40;7.20;;;2.53;;
18879;SDS011;9572;52.378;13.404;2023-05-10T08:10:08;3.83;;;2.17;;
18879;SDS011;9572;52.378;13.404;2023-05-10T08:12:36;3.28;;;2.38;;
18879;SDS011;9572;52.378;13.404;2023-05-10T08:15:04;5.30;;;2.40;;
18879;SDS011;9572;52.378;13.404;2023-05-10T08:17:32;3.33;;;2.00;;
18879;SDS011;9572;52.378;13.404;2023-05-10T08:20:00;3.28;;;2.08;;
18879;SDS011;9572;52.378;13.404;2023-05-10T08:22:27;6.05;;;2.50;;
18879;SDS011;9572;52.378;13.404;2023-05-10T08:24:54;5.75;;;2.20;;
18879;SDS011;9572;52.378;13.404;2023-05-10T08:27:21;4.85;;;2.17;;
18879;SDS011;9572;52.378;13.404;2023-05-10T08:29:48;5.75;;;2.33;;
18879;SDS011;9572;52.378;13.404;2023-05-10T08:32:15;4.75;;;2.10;;
18879;SDS011;9572;52.378;13.404;2023-05-10T08:34:42;7.10;;;2.40;;
18879;SDS011;9572;52.378;13.404;2023-05-10T08:37:10;3.80;;;2.50;;
18879;SDS011;9572;52.378;13.404;2023-05-10T08:39:38;4.22;;;2.00;;
18879;SDS011;9572;52.378;13.404;2023-05-10T08:42:05;3.63;;;2.13;;
18879;SDS011;9572;52.378;13.404;2023-05-10T08:44:34;3.95;;;1.70;;
18879;SDS011;9572;52.378;13.404;2023-05-10T08:47:02;10.02;;;2.50;;
18879;SDS011;9572;52.378;13.404;2023-05-10T08:49:32;2.92;;;2.30;;
18879;SDS011;9572;52.378;13.404;2023-05-10T08:52:00;4.28;;;2.10;;
18879;SDS011;9572;52.378;13.404;2023-05-10T08:54:32;3.67;;;2.40;;
18879;SDS011;9572;52.378;13.404;2023-05-10T08:56:59;6.20;;;2.30;;
18879;SDS011;9572;52.378;13.404;2023-05-10T08:59:27;8.68;;;1.60;;
18879;SDS011;9572;52.378;13.404;2023-05-10T09:01:54;5.05;;;2.28;;
18879;SDS011;9572;52.378;13.404;2023-05-10T09:04:23;3.78;;;1.60;;
18879;SDS011;9572;52.378;13.404;2023-05-10T09:06:50;3.40;;;1.95;;
18879;SDS011;9572;52.378;13.404;2023-05-10T09:09:17;3.92;;;1.90;;
18879;SDS011;9572;52.378;13.404;2023-05-10T09:11:48;8.23;;;2.30;;
18879;SDS011;9572;52.378;13.404;2023-05-10T09:14:15;2.22;;;2.00;;
18879;SDS011;9572;52.378;13.404;2023-05-10T09:16:43;3.35;;;2.00;;
18879;SDS011;9572;52.378;13.404;2023-05-10T09:19:10;4.57;;;2.30;;
18879;SDS011;9572;52.378;13.404;2023-05-10T09:21:37;11.23;;;6.93;;
18879;SDS011;9572;52.378;13.404;2023-05-10T09:24:04;6.10;;;2.58;;
18879;SDS011;9572;52.378;13.404;2023-05-10T09:26:32;2.78;;;2.30;;
18879;SDS011;9572;52.378;13.404;2023-05-10T09:29:02;2.97;;;2.10;;
18879;SDS011;9572;52.378;13.404;2023-05-10T09:34:29;3.40;;;2.20;;
18879;SDS011;9572;52.378;13.404;2023-05-10T09:37:00;3.08;;;2.20;;
18879;SDS011;9572;52.378;13.404;2023-05-10T09:39:32;6.80;;;1.75;;
18879;SDS011;9572;52.378;13.404;2023-05-10T09:41:59;3.67;;;2.05;;
18879;SDS011;9572;52.378;13.404;2023-05-10T09:44:31;6.70;;;2.50;;
18879;SDS011;9572;52.378;13.404;2023-05-10T09:46:58;6.30;;;2.20;;
18879;SDS011;9572;52.378;13.404;2023-05-10T09:49:26;3.17;;;2.15;;
18879;SDS011;9572;52.378;13.404;2023-05-10T09:52:02;7.47;;;2.22;;
18879;SDS011;9572;52.378;13.404;2023-05-10T09:54:30;4.85;;;2.60;;
18879;SDS011;9572;52.378;13.404;2023-05-10T09:56:58;4.47;;;2.38;;
18879;SDS011;9572;52.378;13.404;2023-05-10T09:59:26;8.45;;;2.10;;
18879;SDS011;9572;52.378;13.404;2023-05-10T10:01:56;6.75;;;2.20;;
18879;SDS011;9572;52.378;13.404;2023-05-10T10:04:25;2.20;;;2.00;;
18879;SDS011;9572;52.378;13.404;2023-05-10T10:06:59;2.67;;;1.83;;
18879;SDS011;9572;52.378;13.404;2023-05-10T10:09:27;3.58;;;2.28;;
18879;SDS011;9572;52.378;13.404;2023-05-10T10:11:54;4.68;;;2.20;;
18879;SDS011;9572;52.378;13.404;2023-05-10T10:14:22;2.70;;;1.90;;
18879;SDS011;9572;52.378;13.404;2023-05-10T10:16:49;3.10;;;2.00;;
18879;SDS011;9572;52.378;13.404;2023-05-10T10:19:19;4.00;;;2.10;;
18879;SDS011;9572;52.378;13.404;2023-05-10T10:21:47;5.13;;;1.90;;
18879;SDS011;9572;52.378;13.404;2023-05-10T10:24:14;8.90;;;2.42;;
18879;SDS011;9572;52.378;13.404;2023-05-10T10:26:41;5.30;;;2.13;;
18879;SDS011;9572;52.378;13.404;2023-05-10T10:29:11;2.40;;;2.17;;
18879;SDS011;9572;52.378;13.404;2023-05-10T10:31:48;4.20;;;1.85;;
18879;SDS011;9572;52.378;13.404;2023-05-10T10:34:26;4.57;;;2.78;;
18879;SDS011;9572;52.378;13.404;2023-05-10T10:36:54;6.10;;;1.73;;
18879;SDS011;9572;52.378;13.404;2023-05-10T10:39:22;2.28;;;2.08;;
18879;SDS011;9572;52.378;13.404;2023-05-10T10:41:51;2.20;;;1.80;;
18879;SDS011;9572;52.378;13.404;2023-05-10T10:44:22;4.78;;;2.05;;
18879;SDS011;9572;52.378;13.404;2023-05-10T10:47:00;6.05;;;2.53;;
18879;SDS011;9572;52.378;13.404;2023-05-10T10:49:32;2.92;;;2.20;;
18879;SDS011;9572;52.378;13.404;2023-05-10T10:52:22;2.55;;;1.63;;
18879;SDS011;9572;52.378;13.404;2023-05-10T10:54:54;6.07;;;1.80;;
18879;SDS011;9572;52.378;13.404;2023-05-10T10:57:25;4.35;;;2.03;;
18879;SDS011;9572;52.378;13.404;2023-05-10T10:59:54;3.35;;;2.15;;
18879;SDS011;9572;52.378;13.404;2023-05-10T11:02:45;6.03;;;2.22;;
18879;SDS011;9572;52.378;13.404;2023-05-10T11:08:14;3.15;;;2.20;;
18879;SDS011;9572;52.378;13.404;2023-05-10T11:10:53;3.08;;;1.90;;
18879;SDS011;9572;52.378;13.404;2023-05-10T11:13:29;3.35;;;1.80;;
18879;SDS011;9572;52.378;13.404;2023-05-10T11:15:57;7.25;;;1.70;;
18879;SDS011;9572;52.378;13.404;2023-05-10T11:18:25;3.35;;;1.70;;
18879;SDS011;9572;52.378;13.404;2023-05-10T11:20:56;7.00;;;2.08;;
18879;SDS011;9572;52.378;13.404;2023-05-10T11:23:28;3.63;;;1.83;;
18879;SDS011;9572;52.378;13.404;2023-05-10T11:25:56;5.65;;;1.90;;
18879;SDS011;9572;52.378;13.404;2023-05-10T11:28:24;1.95;;;1.75;;
18879;SDS011;9572;52.378;13.404;2023-05-10T11:30:52;6.28;;;1.90;;
18879;SDS011;9572;52.378;13.404;2023-05-10T11:33:19;7.90;;;2.15;;
18879;SDS011;9572;52.378;13.404;2023-05-10T11:35:46;4.93;;;2.00;;
18879;SDS011;9572;52.378;13.404;2023-05-10T11:38:14;4.93;;;1.80;;
18879;SDS011;9572;52.378;13.404;2023-05-10T11:40:41;3.53;;;1.73;;
18879;SDS011;9572;52.378;13.404;2023-05-10T11:43:09;2.30;;;2.00;;
18879;SDS011;9572;52.378;13.404;2023-05-10T11:45:37;3.15;;;1.65;;
18879;SDS011;9572;52.378;13.404;2023-05-10T11:48:06;3.15;;;1.90;;
18879;SDS011;9572;52.378;13.404;2023-05-10T11:50:33;4.30;;;2.22;;
18879;SDS011;9572;52.378;13.404;2023-05-10T11:53:00;6.32;;;1.85;;
18879;SDS011;9572;52.378;13.404;2023-05-10T11:55:28;4.32;;;1.92;;
18879;SDS011;9572;52.378;13.404;2023-05-10T11:58:00;8.43;;;2.30;;
18879;SDS011;9572;52.378;13.404;2023-05-10T12:00:27;2.88;;;2.22;;
18879;SDS011;9572;52.378;13.404;2023-05-10T12:02:55;6.43;;;1.70;;
18879;SDS011;9572;52.378;13.404;2023-05-10T12:05:22;3.40;;;1.70;;
18879;SDS011;9572;52.378;13.404;2023-05-10T12:07:50;5.32;;;1.85;;
18879;SDS011;9572;52.378;13.404;2023-05-10T12:10:17;7.80;;;2.38;;
18879;SDS011;9572;52.378;13.404;2023-05-10T12:12:53;6.07;;;2.10;;
18879;SDS011;9572;52.378;13.404;2023-05-10T12:15:20;4.80;;;2.10;;
18879;SDS011;9572;52.378;13.404;2023-05-10T12:17:49;5.07;;;1.90;;
18879;SDS011;9572;52.378;13.404;2023-05-10T12:20:16;4.50;;;2.00;;
18879;SDS011;9572;52.378;13.404;2023-05-10T12:22:45;2.85;;;1.70;;
18879;SDS011;9572;52.378;13.404;2023-05-10T12:25:13;2.58;;;1.83;;
18879;SDS011;9572;52.378;13.404;2023-05-10T12:27:44;7.20;;;3.30;;
18879;SDS011;9572;52.378;13.404;2023-05-10T12:30:19;5.20;;;2.35;;
18879;SDS011;9572;52.378;13.404;2023-05-10T12:32:47;2.70;;;2.33;;
18879;SDS011;9572;52.378;13.404;2023-05-10T12:35:14;12.15;;;2.40;;
18879;SDS011;9572;52.378;13.404;2023-05-10T12:37:42;2.88;;;1.70;;
18879;SDS011;9572;52.378;13.404;2023-05-10T12:40:09;2.53;;;1.80;;
18879;SDS011;9572;52.378;13.404;2023-05-10T12:42:38;2.50;;;1.83;;
18879;SDS011;9572;52.378;13.404;2023-05-10T12:45:06;3.83;;;1.80;;
18879;SDS011;9572;52.378;13.404;2023-05-10T12:47:35;4.38;;;1.77;;
18879;SDS011;9572;52.378;13.404;2023-05-10T12:50:03;3.33;;;2.13;;
18879;SDS011;9572;52.378;13.404;2023-05-10T12:52:31;3.83;;;1.95;;
18879;SDS011;9572;52.378;13.404;2023-05-10T12:54:58;6.60;;;2.33;;
18879;SDS011;9572;52.378;13.404;2023-05-10T12:57:25;6.05;;;1.80;;
18879;SDS011;9572;52.378;13.404;2023-05-10T12:59:53;2.05;;;1.63;;
18879;SDS011;9572;52.378;13.404;2023-05-10T13:02:20;4.43;;;1.85;;
18879;SDS011;9572;52.378;13.404;2023-05-10T13:04:49;3.88;;;1.77;;
18879;SDS011;9572;52.378;13.404;2023-05-10T13:07:17;4.65;;;2.00;;
18879;SDS011;9572;52.378;13.404;2023-05-10T13:09:43;5.03;;;2.03;;
18879;SDS011;9572;52.378;13.404;2023-05-10T13:12:10;4.38;;;2.00;;
18879;SDS011;9572;52.378;13.404;2023-05-10T13:14:37;3.90;;;2.10;;
18879;SDS011;9572;52.378;13.404;2023-05-10T13:17:05;2.70;;;1.80;;
18879;SDS011;9572;52.378;13.404;2023-05-10T13:19:32;4.35;;;1.85;;
18879;SDS011;9572;52.378;13.404;2023-05-10T13:22:00;7.45;;;2.10;;
18879;SDS011;9572;52.378;13.404;2023-05-10T13:24:27;2.40;;;1.83;;
18879;SDS011;9572;52.378;13.404;2023-05-10T13:26:55;4.97;;;1.73;;
18879;SDS011;9572;52.378;13.404;2023-05-10T13:29:21;1.85;;;1.60;;
18879;SDS011;9572;52.378;13.404;2023-05-10T13:31:48;5.30;;;1.80;;
18879;SDS011;9572;52.378;13.404;2023-05-10T13:34:15;3.55;;;2.40;;
18879;SDS011;9572;52.378;13.404;2023-05-10T13:36:45;3.20;;;2.10;;
18879;SDS011;9572;52.378;13.404;2023-05-10T13:39:13;6.05;;;1.88;;
18879;SDS011;9572;52.378;13.404;2023-05-10T13:41:41;5.03;;;2.00;;
18879;SDS011;9572;52.378;13.404;2023-05-10T13:44:08;3.00;;;1.85;;
18879;SDS011;9572;52.378;13.404;2023-05-10T13:46:35;3.60;;;1.95;;
18879;SDS011;9572;52.378;13.404;2023-05-10T13:49:03;9.07;;;2.00;;
18879;SDS011;9572;52.378;13.404;2023-05-10T13:51:30;3.65;;;1.92;;
18879;SDS011;9572;52.378;13.404;2023-05-10T13:53:57;4.88;;;1.80;;
18879;SDS011;9572;52.378;13.404;2023-05-10T13:56:26;7.45;;;2.20;;
18879;SDS011;9572;52.378;13.404;2023-05-10T13:58:53;6.35;;;1.83;;
18879;SDS011;9572;52.378;13.404;2023-05-10T14:01:20;2.65;;;1.67;;
18879;SDS011;9572;52.378;13.404;2023-05-10T14:03:48;4.63;;;1.85;;
18879;SDS011;9572;52.378;13.404;2023-05-10T14:06:15;4.85;;;1.63;;
18879;SDS011;9572;52.378;13.404;2023-05-10T14:08:42;4.32;;;1.48;;
18879;SDS011;9572;52.378;13.404;2023-05-10T14:11:09;2.30;;;1.90;;
18879;SDS011;9572;52.378;13.404;2023-05-10T14:13:37;8.55;;;2.17;;
18879;SDS011;9572;52.378;13.404;2023-05-10T14:16:05;2.90;;;1.80;;
18879;SDS011;9572;52.378;13.404;2023-05-10T14:18:32;5.32;;;1.70;;
18879;SDS011;9572;52.378;13.404;2023-05-10T14:21:03;3.10;;;1.67;;
18879;SDS011;9572;52.378;13.404;2023-05-10T14:23:30;4.10;;;1.77;;
18879;SDS011;9572;52.378;13.404;2023-05-10T14:25:57;4.00;;;1.80;;
18879;SDS011;9572;52.378;13.404;2023-05-10T14:28:24;3.58;;;1.70;;
18879;SDS011;9572;52.378;13.404;2023-05-10T14:30:53;3.67;;;1.88;;
18879;SDS011;9572;52.378;13.404;2023-05-10T14:33:20;2.40;;;1.77;;
18879;SDS011;9572;52.378;13.404;2023-05-10T14:35:47;4.00;;;1.75;;
18879;SDS011;9572;52.378;13.404;2023-05-10T14:38:14;3.10;;;1.80;;
18879;SDS011;9572;52.378;13.404;2023-05-10T14:40:41;2.83;;;1.80;;
18879;SDS011;9572;52.378;13.404;2023-05-10T14:43:09;2.53;;;1.70;;
18879;SDS011;9572;52.378;13.404;2023-05-10T14:45:36;3.50;;;1.90;;
18879;SDS011;9572;52.378;13.404;2023-05-10T14:48:04;4.38;;;2.08;;
18879;SDS011;9572;52.378;13.404;2023-05-10T14:50:33;5.22;;;2.00;;
18879;SDS011;9572;52.378;13.404;2023-05-10T14:53:00;3.80;;;2.15;;
18879;SDS011;9572;52.378;13.404;2023-05-10T14:55:28;4.22;;;1.90;;
18879;SDS011;9572;52.378;13.404;2023-05-10T14:57:55;3.40;;;1.80;;
18879;SDS011;9572;52.378;13.404;2023-05-10T15:00:23;4.80;;;2.20;;
18879;SDS011;9572;52.378;13.404;2023-05-10T15:02:50;3.40;;;1.98;;
18879;SDS011;9572;52.378;13.404;2023-05-10T15:05:18;4.22;;;1.80;;